Time;durP1;ratioP1;P1;durP2;ratioP2;P2;SDS_P1;SDS_P2;PMS_P1;PMS_P2;Temp;Humidity;BMP_temperature;BMP_pressure;BME280_temperature;BME280_humidity;BME280_pressure;Samples;Min_cycle;Max_cycle;Signal;HPM_P1;HPM_P2
2022/10/05 00:00:53;;;;;;;893.83;836.43;;;9.90;99.90;;;;;;5041440;28;20486;-83
2022/10/05 00:03:21;;;;;;;890.43;834.70;;;9.90;99.90;;;;;;5041108;28;20448;-85
2022/10/05 00:05:49;;;;;;;881.03;827.07;;;9.80;99.90;;;;;;5040890;28;20514;-84
2022/10/05 00:08:19;;;;;;;872.77;819.67;;;9.80;99.90;;;;;;5036406;28;20456;-85
2022/10/05 00:10:47;;;;;;;882.23;827.73;;;9.70;99.90;;;;;;5022938;28;20437;-85
2022/10/05 00:13:15;;;;;;;888.80;833.40;;;9.80;99.90;;;;;;5026818;28;20544;-84
2022/10/05 00:15:42;;;;;;;898.97;842.03;;;9.70;99.90;;;;;;5040612;28;20491;-83
2022/10/05 00:18:15;;;;;;;891.20;835.20;;;9.70;99.90;;;;;;5025441;28;20609;-84
2022/10/05 00:20:43;;;;;;;897.10;838.70;;;9.70;99.90;;;;;;5022424;28;20453;-86
2022/10/05 00:23:17;;;;;;;895.40;838.00;;;9.70;99.90;;;;;;5022645;28;20456;-83
2022/10/05 00:25:46;;;;;;;898.37;839.60;;;9.60;99.90;;;;;;5025274;28;20972;-85
2022/10/05 00:28:18;;;;;;;902.43;843.63;;;9.60;99.90;;;;;;5026748;28;20480;-85
2022/10/05 00:30:45;;;;;;;896.20;837.73;;;9.60;99.90;;;;;;5045706;28;20446;-84
2022/10/05 00:33:12;;;;;;;890.90;833.10;;;9.50;99.90;;;;;;5030248;28;20532;-82
2022/10/05 00:35:39;;;;;;;888.03;828.93;;;9.50;99.90;;;;;;5025458;28;20487;-84
2022/10/05 00:38:06;;;;;;;884.03;825.23;;;9.50;99.90;;;;;;5040890;28;20454;-84
2022/10/05 00:40:42;;;;;;;874.53;817.30;;;9.40;99.90;;;;;;5046922;28;20551;-84
2022/10/05 00:43:32;;;;;;;886.83;827.93;;;9.40;99.90;;;;;;5032931;28;20452;-83
2022/10/05 00:46:06;;;;;;;891.33;832.17;;;9.40;99.90;;;;;;5026650;28;20519;-84
2022/10/05 00:48:43;;;;;;;880.40;820.83;;;9.40;99.90;;;;;;5026655;28;20436;-84
2022/10/05 00:51:33;;;;;;;878.53;818.07;;;9.30;99.90;;;;;;5027413;28;20447;-84
2022/10/05 00:54:18;;;;;;;886.53;826.03;;;9.20;99.90;;;;;;5027224;28;20444;-84
2022/10/05 00:57:16;;;;;;;891.20;829.40;;;9.30;99.90;;;;;;5027735;28;20479;-84
2022/10/05 00:59:55;;;;;;;877.00;810.93;;;9.10;99.90;;;;;;5031512;28;20440;-84
2022/10/05 01:02:30;;;;;;;874.83;805.43;;;9.30;99.90;;;;;;5047044;28;20458;-84
2022/10/05 01:05:02;;;;;;;879.13;810.53;;;9.20;99.90;;;;;;5046418;28;20445;-83
2022/10/05 01:07:38;;;;;;;886.27;818.93;;;9.30;99.90;;;;;;5046936;28;20444;-83
2022/10/05 01:10:14;;;;;;;884.17;819.27;;;9.30;99.90;;;;;;5047119;28;20440;-84
2022/10/05 01:12:48;;;;;;;888.40;822.23;;;9.20;99.90;;;;;;5047919;28;20461;-84
2022/10/05 01:15:24;;;;;;;893.70;824.43;;;9.20;99.90;;;;;;5046303;28;20543;-83
2022/10/05 01:17:57;;;;;;;876.20;803.80;;;9.20;99.90;;;;;;5046890;28;20428;-84
2022/10/05 01:20:35;;;;;;;875.17;803.20;;;9.30;99.90;;;;;;5046951;28;20436;-84
2022/10/05 01:23:34;;;;;;;876.60;802.73;;;9.30;99.90;;;;;;5046670;28;20508;-83
2022/10/05 01:26:18;;;;;;;884.97;812.97;;;9.30;99.90;;;;;;5047079;28;20499;-83
2022/10/05 01:28:51;;;;;;;883.27;813.70;;;9.30;99.90;;;;;;5046854;28;20440;-83
2022/10/05 01:31:24;;;;;;;879.70;808.53;;;9.20;99.90;;;;;;5047079;28;20483;-84
2022/10/05 01:33:57;;;;;;;872.40;796.87;;;9.30;99.90;;;;;;5046262;28;20445;-83
2022/10/05 01:36:32;;;;;;;878.47;801.80;;;9.30;99.90;;;;;;5045212;28;20488;-83
2022/10/05 01:39:06;;;;;;;865.87;789.87;;;9.40;99.90;;;;;;5045814;28;20466;-84
2022/10/05 01:41:46;;;;;;;872.77;795.67;;;9.30;99.90;;;;;;5046193;28;20447;-83
2022/10/05 01:44:17;;;;;;;865.53;789.20;;;9.50;99.90;;;;;;5046336;28;20527;-83
2022/10/05 01:46:52;;;;;;;878.80;804.67;;;9.60;99.90;;;;;;5045457;28;20480;-84
2022/10/05 01:49:36;;;;;;;875.20;802.40;;;9.40;99.90;;;;;;5046123;28;20432;-84
2022/10/05 01:52:16;;;;;;;870.03;797.40;;;9.40;99.90;;;;;;5046251;28;20462;-83
2022/10/05 01:54:57;;;;;;;882.77;810.10;;;9.30;99.90;;;;;;5045556;28;20460;-87
2022/10/05 01:57:33;;;;;;;868.83;794.47;;;9.30;99.90;;;;;;5005903;28;20446;-83
2022/10/05 02:00:07;;;;;;;862.27;787.57;;;9.30;99.90;;;;;;5016456;28;20463;-84
2022/10/05 02:02:37;;;;;;;859.63;784.87;;;9.40;99.90;;;;;;5045374;28;20436;-83
2022/10/05 02:05:08;;;;;;;867.40;794.60;;;9.40;99.90;;;;;;5038682;28;20950;-82
2022/10/05 02:07:39;;;;;;;875.57;806.27;;;9.30;99.90;;;;;;5025426;28;20429;-84
2022/10/05 02:10:12;;;;;;;877.00;809.37;;;9.20;99.90;;;;;;5025045;28;20454;-83
2022/10/05 02:12:40;;;;;;;876.43;808.07;;;8.90;99.90;;;;;;5024723;28;20442;-83
2022/10/05 02:15:14;;;;;;;866.10;795.40;;;9.10;99.90;;;;;;5024023;28;20465;-82
2022/10/05 02:17:46;;;;;;;854.33;780.47;;;9.20;99.90;;;;;;5040383;28;20483;-83
2022/10/05 02:20:20;;;;;;;848.90;773.53;;;9.10;99.90;;;;;;5043410;28;20479;-84
2022/10/05 02:22:49;;;;;;;839.83;763.03;;;9.20;99.90;;;;;;5044142;28;20470;-83
2022/10/05 02:25:22;;;;;;;843.57;767.97;;;9.30;99.90;;;;;;5044046;28;20468;-83
2022/10/05 02:27:53;;;;;;;848.30;772.30;;;9.40;99.90;;;;;;5044072;28;20520;-83
2022/10/05 02:30:22;;;;;;;848.80;773.50;;;9.50;99.90;;;;;;5044325;28;20437;-83
2022/10/05 02:32:54;;;;;;;863.57;785.43;;;9.40;99.90;;;;;;5044642;28;20453;-83
2022/10/05 02:35:22;;;;;;;857.00;779.03;;;9.60;99.90;;;;;;5043598;28;20515;-83
2022/10/05 02:37:59;;;;;;;862.73;784.83;;;9.80;99.90;;;;;;5044162;28;20452;-83
2022/10/05 02:40:37;;;;;;;857.90;780.40;;;9.90;99.90;;;;;;5043761;28;20441;-83
2022/10/05 02:43:13;;;;;;;866.07;789.07;;;10.10;99.90;;;;;;5045011;28;20446;-83
2022/10/05 02:45:52;;;;;;;873.47;799.47;;;10.40;99.90;;;;;;5043368;28;20579;-83
2022/10/05 02:48:31;;;;;;;883.00;810.80;;;10.40;99.90;;;;;;5043717;28;20463;-83
2022/10/05 02:51:10;;;;;;;898.63;830.53;;;10.50;99.90;;;;;;5043892;28;20467;-83
2022/10/05 02:53:43;;;;;;;900.70;836.20;;;10.40;99.90;;;;;;5044657;28;20441;-82
2022/10/05 02:56:18;;;;;;;906.27;842.13;;;10.50;99.90;;;;;;5028720;28;20480;-83
2022/10/05 02:58:55;;;;;;;901.53;837.10;;;10.50;99.90;;;;;;5024389;28;20435;-83
2022/10/05 03:01:27;;;;;;;901.03;836.37;;;10.60;99.90;;;;;;5024054;28;20437;-83
2022/10/05 03:04:06;;;;;;;894.53;832.33;;;10.70;99.90;;;;;;5024484;28;20467;-83
2022/10/05 03:06:41;;;;;;;894.60;835.50;;;10.80;99.90;;;;;;5023588;28;20491;-83
2022/10/05 03:09:09;;;;;;;873.80;818.20;;;10.80;99.90;;;;;;5024813;28;20451;-83
2022/10/05 03:11:46;;;;;;;859.47;805.80;;;10.80;99.90;;;;;;5040026;28;20455;-83
2022/10/05 03:14:19;;;;;;;868.53;815.73;;;10.90;99.90;;;;;;5042999;28;20429;-83
2022/10/05 03:17:03;;;;;;;850.47;800.70;;;10.90;99.90;;;;;;5040628;28;20488;-83
2022/10/05 03:19:53;;;;;;;823.83;776.27;;;11.00;99.90;;;;;;5042202;28;20448;-81
2022/10/05 03:22:33;;;;;;;828.57;780.30;;;11.00;99.90;;;;;;5042026;28;20488;-82
2022/10/05 03:25:20;;;;;;;839.90;790.83;;;10.90;99.90;;;;;;5041265;28;20436;-80
2022/10/05 03:27:57;;;;;;;831.37;782.10;;;11.00;99.90;;;;;;5042216;28;20808;-80
2022/10/05 03:30:26;;;;;;;831.87;783.50;;;10.90;99.90;;;;;;5041982;28;20436;-82
2022/10/05 03:33:03;;;;;;;816.13;768.83;;;11.10;99.90;;;;;;5042322;28;20515;-82
2022/10/05 03:35:32;;;;;;;803.20;756.63;;;11.00;99.90;;;;;;5036596;28;20481;-81
2022/10/05 03:38:08;;;;;;;800.27;753.87;;;11.10;99.90;;;;;;5023059;28;20453;-82
2022/10/05 03:40:39;;;;;;;792.03;746.57;;;11.10;99.90;;;;;;5022537;28;20464;-82
2022/10/05 03:43:32;;;;;;;789.80;742.90;;;11.10;99.90;;;;;;5022680;28;20498;-81
2022/10/05 03:46:08;;;;;;;787.83;742.77;;;11.20;99.90;;;;;;5022669;28;20477;-81
2022/10/05 03:48:43;;;;;;;772.57;730.27;;;11.20;99.90;;;;;;5023316;28;20448;-82
2022/10/05 03:51:20;;;;;;;763.90;722.47;;;11.20;99.90;;;;;;5022913;28;20436;-82
2022/10/05 03:53:53;;;;;;;761.57;721.00;;;11.10;99.90;;;;;;5023435;28;20441;-81
2022/10/05 03:56:29;;;;;;;752.20;712.33;;;11.00;99.90;;;;;;5022650;28;20489;-82
2022/10/05 03:59:01;;;;;;;753.27;714.10;;;10.80;99.90;;;;;;5023611;28;20483;-82
2022/10/05 04:01:38;;;;;;;776.07;734.17;;;10.70;99.90;;;;;;5043528;28;20444;-82
2022/10/05 04:04:13;;;;;;;770.70;729.53;;;10.70;99.90;;;;;;5047468;28;20499;-86
2022/10/05 04:06:46;;;;;;;787.00;742.67;;;10.60;99.90;;;;;;5046937;28;20474;-82
2022/10/05 04:09:18;;;;;;;813.67;765.43;;;10.50;99.90;;;;;;5046708;28;20460;-82
2022/10/05 04:11:49;;;;;;;838.83;787.53;;;10.50;99.90;;;;;;5046940;28;20523;-83
2022/10/05 04:14:21;;;;;;;848.47;793.53;;;10.40;99.90;;;;;;5045908;28;20468;-81
2022/10/05 04:16:54;;;;;;;858.43;799.73;;;10.40;99.90;;;;;;5042431;28;20507;-84
2022/10/05 04:23:31;;;;;;;839.87;779.50;;;10.60;99.90;;;;;;5016234;28;20459;-82
2022/10/05 04:26:29;;;;;;;834.00;773.70;;;10.70;99.90;;;;;;5040578;28;20543;-82
2022/10/05 04:29:03;;;;;;;831.60;774.40;;;11.00;99.90;;;;;;5032620;28;20445;-82
2022/10/05 04:31:42;;;;;;;813.73;760.20;;;11.00;99.90;;;;;;5035180;28;20566;-80
2022/10/05 04:34:20;;;;;;;807.37;754.87;;;11.10;99.90;;;;;;5023174;28;20441;-83
2022/10/05 04:36:57;;;;;;;758.10;713.30;;;11.10;99.90;;;;;;5026201;28;20479;-82
2022/10/05 04:40:04;;;;;;;;;;;;;;;;;;;;;
2022/10/05 04:42:36;;;;;;;711.83;673.23;;;11.10;99.90;;;;;;5021154;28;20459;-82
2022/10/05 04:45:13;;;;;;;681.93;646.77;;;11.20;99.90;;;;;;5022431;28;20437;-82
2022/10/05 04:48:04;;;;;;;646.50;614.73;;;11.30;99.90;;;;;;5023658;28;20440;-83
2022/10/05 04:50:49;;;;;;;592.63;564.83;;;11.30;99.90;;;;;;5031316;28;20506;-82
2022/10/05 04:53:33;;;;;;;574.13;548.10;;;11.30;99.90;;;;;;5033925;28;20441;-83
2022/10/05 04:56:09;;;;;;;539.03;515.53;;;11.30;99.90;;;;;;5031193;28;20515;-81
2022/10/05 04:58:56;;;;;;;529.93;506.83;;;11.20;99.90;;;;;;5037521;28;20451;-85
2022/10/05 05:01:50;;;;;;;538.97;515.83;;;11.10;99.90;;;;;;5039726;28;20452;-82
2022/10/05 05:04:40;;;;;;;548.50;524.20;;;11.10;99.90;;;;;;5021198;28;20524;-82
2022/10/05 05:07:18;;;;;;;578.07;552.90;;;11.10;99.90;;;;;;5014856;28;20472;-82
2022/10/05 05:10:18;;;;;;;578.57;552.87;;;11.00;99.90;;;;;;5020879;28;20466;-82
2022/10/05 05:13:03;;;;;;;590.87;564.40;;;11.00;99.90;;;;;;5034211;28;20452;-82
2022/10/05 05:16:07;;;;;;;;;;;;;;;;;;;;;
2022/10/05 05:22:24;;;;;;;632.80;602.27;;;11.00;99.90;;;;;;4884618;29;20520;-82
2022/10/05 05:25:05;;;;;;;645.40;614.20;;;11.00;99.90;;;;;;5019030;28;20484;-82
2022/10/05 05:27:42;;;;;;;646.63;615.70;;;11.10;99.90;;;;;;5023670;28;20449;-82
2022/10/05 05:30:19;;;;;;;657.90;625.67;;;11.00;99.90;;;;;;5023245;28;20437;-84
2022/10/05 05:32:57;;;;;;;666.37;632.97;;;11.00;99.90;;;;;;5023302;28;20491;-83
2022/10/05 05:36:04;;;;;;;657.80;625.13;;;11.00;99.90;;;;;;5023172;28;20477;-83
2022/10/05 05:38:35;;;;;;;662.47;630.10;;;11.00;99.90;;;;;;5024228;28;20445;-82
2022/10/05 05:41:08;;;;;;;667.53;634.27;;;11.10;99.90;;;;;;5023994;28;20445;-83
2022/10/05 05:43:51;;;;;;;651.50;618.90;;;11.20;99.90;;;;;;5018900;28;20456;-84
2022/10/05 05:46:25;;;;;;;651.73;619.73;;;11.20;99.90;;;;;;5071368;23;20489;-82
2022/10/05 05:48:53;;;;;;;636.50;605.40;;;11.20;99.90;;;;;;4997756;28;20458;-81
2022/10/05 05:51:24;;;;;;;625.00;594.90;;;11.30;99.90;;;;;;4981890;28;20467;-81
2022/10/05 05:53:58;;;;;;;629.10;599.17;;;11.30;99.90;;;;;;4991684;28;20961;-82
2022/10/05 05:56:30;;;;;;;613.00;584.60;;;11.30;99.90;;;;;;4980375;28;20483;-81
2022/10/05 05:59:06;;;;;;;596.67;570.00;;;11.40;99.90;;;;;;4998639;28;20466;-84
2022/10/05 06:01:38;;;;;;;565.43;540.27;;;11.40;99.90;;;;;;4979416;28;20463;-83
2022/10/05 06:04:12;;;;;;;556.90;532.43;;;11.50;99.90;;;;;;4979656;28;20830;-81
2022/10/05 06:06:45;;;;;;;512.20;490.10;;;11.60;99.90;;;;;;4986346;28;20470;-83
2022/10/05 06:09:18;;;;;;;517.17;495.47;;;11.60;99.90;;;;;;4980786;28;20454;-83
2022/10/05 06:11:50;;;;;;;510.70;489.30;;;11.70;99.90;;;;;;4997787;28;20457;-83
2022/10/05 06:14:23;;;;;;;455.30;436.70;;;11.70;99.90;;;;;;4996963;28;20450;-81
2022/10/05 06:16:57;;;;;;;412.40;396.13;;;11.80;99.90;;;;;;4995206;28;20481;-81
2022/10/05 06:19:26;;;;;;;389.33;374.03;;;11.80;99.90;;;;;;4978092;28;20978;-81
2022/10/05 06:21:59;;;;;;;366.40;352.30;;;11.90;99.90;;;;;;4982915;28;20454;-82
2022/10/05 06:24:31;;;;;;;348.20;334.47;;;12.00;99.90;;;;;;4995188;28;20468;-81
2022/10/05 06:27:21;;;;;;;376.87;362.40;;;12.10;99.90;;;;;;4996335;28;20474;-81
2022/10/05 06:30:07;;;;;;;375.37;360.90;;;12.20;99.90;;;;;;4996225;28;20458;-80
2022/10/05 06:32:44;;;;;;;397.97;381.90;;;12.20;99.90;;;;;;4996573;28;21122;-82
2022/10/05 06:35:19;;;;;;;389.97;374.97;;;12.30;99.90;;;;;;4995136;28;20454;-81
2022/10/05 06:37:57;;;;;;;366.50;352.60;;;12.40;99.90;;;;;;4996545;28;20481;-81
2022/10/05 06:40:44;;;;;;;334.97;322.23;;;12.60;99.90;;;;;;4996593;28;20450;-81
2022/10/05 06:43:30;;;;;;;277.87;267.50;;;12.70;99.90;;;;;;4996297;28;20453;-81
2022/10/05 06:46:09;;;;;;;267.60;257.70;;;12.80;99.90;;;;;;4989109;28;21020;-81
2022/10/05 06:48:52;;;;;;;265.23;255.73;;;12.80;99.90;;;;;;4996422;28;20541;-81
2022/10/05 06:51:24;;;;;;;224.17;215.97;;;12.90;99.90;;;;;;4978289;28;20455;-82
2022/10/05 06:54:02;;;;;;;228.97;220.93;;;13.00;99.90;;;;;;4994232;28;20450;-81
2022/10/05 06:56:34;;;;;;;227.07;218.83;;;13.00;99.90;;;;;;4994078;28;20971;-82
2022/10/05 06:59:08;;;;;;;211.30;203.80;;;13.10;99.90;;;;;;4997655;28;20465;-82
2022/10/05 07:01:45;;;;;;;167.93;161.10;;;13.30;99.90;;;;;;5000774;28;20642;-82
2022/10/05 07:04:51;;;;;;;152.90;146.20;;;13.30;99.90;;;;;;4985649;28;20462;-81
2022/10/05 07:07:24;;;;;;;127.83;122.97;;;13.40;99.90;;;;;;4929076;29;20953;-82
2022/10/05 07:10:04;;;;;;;121.77;116.97;;;13.50;99.90;;;;;;4985011;28;20450;-82
2022/10/05 07:12:45;;;;;;;104.40;100.20;;;13.60;99.90;;;;;;4999135;28;20458;-82
2022/10/05 07:15:46;;;;;;;80.53;77.03;;;13.60;99.90;;;;;;4992891;28;20483;-82
2022/10/05 07:18:30;;;;;;;72.27;69.13;;;13.70;99.90;;;;;;4996223;28;20442;-81
2022/10/05 07:21:04;;;;;;;41.33;38.63;;;13.80;99.90;;;;;;4995189;28;20489;-82
2022/10/05 07:23:49;;;;;;;48.77;46.40;;;13.80;99.90;;;;;;4996464;28;20974;-79
2022/10/05 07:26:22;;;;;;;38.03;35.73;;;13.80;99.90;;;;;;4996049;28;20472;-82
2022/10/05 07:29:11;;;;;;;19.57;18.17;;;13.90;99.90;;;;;;4996150;28;20452;-82
2022/10/05 07:31:47;;;;;;;18.20;16.80;;;13.90;99.90;;;;;;4996830;28;20461;-82
2022/10/05 07:34:24;;;;;;;22.67;20.93;;;13.90;99.90;;;;;;4996691;28;20456;-81
2022/10/05 07:39:53;;;;;;;22.10;20.40;;;14.00;99.90;;;;;;4996995;28;20450;-82
2022/10/05 07:42:31;;;;;;;22.73;21.17;;;14.00;99.90;;;;;;4996928;28;20458;-82
2022/10/05 07:45:08;;;;;;;24.20;22.33;;;14.00;99.90;;;;;;4997095;28;20454;-82
2022/10/05 07:47:37;;;;;;;20.63;19.13;;;14.10;99.90;;;;;;4996839;28;20480;-82
2022/10/05 07:50:16;;;;;;;22.83;21.03;;;14.10;99.90;;;;;;4996247;28;20458;-82
2022/10/05 07:52:49;;;;;;;24.10;22.40;;;14.30;99.90;;;;;;4996805;28;20888;-82
2022/10/05 07:55:19;;;;;;;19.50;18.00;;;14.30;99.90;;;;;;4995622;28;20501;-82
2022/10/05 07:57:53;;;;;;;19.20;17.23;;;14.50;99.90;;;;;;4996439;28;20490;-82
2022/10/05 08:00:22;;;;;;;17.10;15.70;;;14.60;99.90;;;;;;4996763;28;20521;-82
2022/10/05 08:02:53;;;;;;;17.70;9.87;;;14.80;99.90;;;;;;4996795;28;20462;-82
2022/10/05 08:05:25;;;;;;;9.83;7.97;;;15.00;99.90;;;;;;4995560;28;20459;-82
2022/10/05 08:07:59;;;;;;;15.23;8.20;;;15.10;99.90;;;;;;4996027;28;20474;-82
2022/10/05 08:10:33;;;;;;;10.17;7.10;;;15.30;99.90;;;;;;4996846;28;20890;-82
2022/10/05 08:13:10;;;;;;;8.37;6.13;;;15.40;99.90;;;;;;4996247;28;20462;-82
2022/10/05 08:15:41;;;;;;;11.07;5.77;;;15.60;99.90;;;;;;4996068;28;21083;-82
2022/10/05 08:18:16;;;;;;;8.80;5.00;;;15.80;99.90;;;;;;4996345;28;20482;-82
2022/10/05 08:20:47;;;;;;;10.20;5.13;;;15.90;99.90;;;;;;4996890;28;20473;-82
2022/10/05 08:23:22;;;;;;;8.80;4.77;;;16.10;99.90;;;;;;4996384;28;20458;-82
2022/10/05 08:25:59;;;;;;;10.87;4.90;;;16.30;98.20;;;;;;4995640;28;20483;-82
2022/10/05 08:28:31;;;;;;;12.53;5.07;;;16.30;98.00;;;;;;4995353;28;20964;-82
2022/10/05 08:31:03;;;;;;;8.43;4.27;;;16.40;97.20;;;;;;4996319;28;20843;-82
2022/10/05 08:33:40;;;;;;;9.40;4.27;;;16.50;97.00;;;;;;4997013;28;20441;-82
2022/10/05 08:36:11;;;;;;;9.63;4.70;;;16.60;96.60;;;;;;4995719;28;20483;-82
2022/10/05 08:38:41;;;;;;;8.27;4.03;;;16.70;96.60;;;;;;4996800;28;20674;-82
2022/10/05 08:41:51;;;;;;;8.27;4.20;;;16.80;96.40;;;;;;4997262;28;20455;-82
2022/10/05 08:44:49;;;;;;;7.83;4.20;;;16.90;95.10;;;;;;4996334;28;20522;-82
2022/10/05 08:47:30;;;;;;;8.17;3.60;;;17.10;95.80;;;;;;4999889;28;20487;-82
2022/10/05 08:50:10;;;;;;;8.10;3.50;;;16.90;93.80;;;;;;4999880;28;20478;-82
2022/10/05 08:52:54;;;;;;;7.13;4.33;;;16.90;95.00;;;;;;4998425;28;20455;-82
2022/10/05 08:55:40;;;;;;;7.97;3.80;;;16.90;93.80;;;;;;4999132;28;20458;-81
2022/10/05 08:58:48;;;;;;;8.20;4.10;;;17.00;93.90;;;;;;4998624;28;20838;-82
2022/10/05 09:01:21;;;;;;;6.27;3.57;;;17.00;93.90;;;;;;4999289;28;20950;-83
2022/10/05 09:04:20;;;;;;;8.90;4.53;;;17.00;92.70;;;;;;4999629;28;20475;-86
2022/10/05 09:07:03;;;;;;;6.53;3.33;;;17.00;92.50;;;;;;4998485;28;20883;-82
2022/10/05 09:10:04;;;;;;;7.07;3.70;;;17.10;93.30;;;;;;4999514;28;20457;-82
2022/10/05 09:13:05;;;;;;;6.33;3.70;;;17.20;92.50;;;;;;4977135;28;20449;-82
2022/10/05 09:15:45;;;;;;;7.63;3.60;;;17.20;91.50;;;;;;4991537;28;20461;-82
2022/10/05 09:18:42;;;;;;;6.53;3.23;;;17.20;92.20;;;;;;4998795;28;20480;-83
2022/10/05 09:21:19;;;;;;;10.17;3.60;;;17.20;92.10;;;;;;4999728;28;20469;-82
2022/10/05 09:23:55;;;;;;;10.23;3.53;;;17.10;91.60;;;;;;4998725;28;20802;-82
2022/10/05 09:26:44;;;;;;;5.50;3.40;;;17.10;92.40;;;;;;4998733;28;20994;-83
2022/10/05 09:29:53;;;;;;;7.80;3.83;;;17.10;92.30;;;;;;5000456;28;20459;-82
2022/10/05 09:32:40;;;;;;;8.20;3.90;;;17.00;92.30;;;;;;5000836;28;20459;-82
2022/10/05 09:35:22;;;;;;;7.70;3.57;;;17.00;92.20;;;;;;4999945;28;20454;-81
2022/10/05 09:38:05;;;;;;;9.77;3.60;;;17.10;92.60;;;;;;4999059;28;20485;-82
2022/10/05 09:41:12;;;;;;;8.40;3.30;;;17.20;92.10;;;;;;4998983;28;20458;-82
2022/10/05 09:44:17;;;;;;;7.47;3.03;;;17.30;91.80;;;;;;4998452;28;20451;-82
2022/10/05 09:47:03;;;;;;;7.23;3.30;;;17.40;90.70;;;;;;4998284;28;20486;-82
2022/10/05 09:49:53;;;;;;;8.43;3.40;;;17.50;91.00;;;;;;4997871;28;20459;-82
2022/10/05 09:52:44;;;;;;;7.13;3.37;;;17.60;89.60;;;;;;4998103;28;20872;-82
2022/10/05 09:55:43;;;;;;;7.20;2.80;;;17.80;91.20;;;;;;4997077;28;20463;-83
2022/10/05 09:58:38;;;;;;;6.00;2.87;;;17.90;90.80;;;;;;4973090;28;20472;-83
2022/10/05 10:01:19;;;;;;;5.50;2.53;;;18.00;90.70;;;;;;5001954;28;20897;-82
2022/10/05 10:04:21;;;;;;;5.33;2.47;;;18.00;90.10;;;;;;4977130;28;20953;-82
2022/10/05 10:07:19;;;;;;;5.53;1.97;;;17.90;89.20;;;;;;4977318;28;20482;-82
2022/10/05 10:10:05;;;;;;;5.50;2.50;;;18.10;88.50;;;;;;4991997;28;20836;-83
2022/10/05 10:12:51;;;;;;;5.67;2.50;;;18.40;91.00;;;;;;4996955;28;20450;-82
2022/10/05 10:15:41;;;;;;;4.40;2.00;;;18.80;85.00;;;;;;4997216;28;20490;-81
2022/10/05 10:18:30;;;;;;;6.00;2.30;;;19.40;85.50;;;;;;4997819;28;20483;-82
2022/10/05 10:21:32;;;;;;;5.90;2.10;;;19.90;80.70;;;;;;4997586;28;20459;-82
2022/10/05 10:24:13;;;;;;;6.90;2.30;;;20.10;78.30;;;;;;4996759;28;20491;-82
2022/10/05 10:27:08;;;;;;;5.00;2.30;;;20.20;78.00;;;;;;4997075;28;20489;-82
2022/10/05 10:29:56;;;;;;;5.00;1.73;;;20.50;74.90;;;;;;4996571;28;20453;-83
2022/10/05 10:32:47;;;;;;;7.00;2.40;;;20.30;73.70;;;;;;4997546;28;20457;-82
2022/10/05 10:35:25;;;;;;;5.03;2.00;;;20.60;71.90;;;;;;4997726;28;20469;-84
2022/10/05 10:38:23;;;;;;;7.53;1.97;;;21.00;71.00;;;;;;5001892;28;20499;-84
2022/10/05 10:41:14;;;;;;;6.83;2.00;;;22.10;68.20;;;;;;4997124;28;20507;-83
2022/10/05 10:44:05;;;;;;;4.80;1.70;;;22.80;64.60;;;;;;4998786;28;20452;-83
2022/10/05 10:46:43;;;;;;;4.43;1.73;;;22.90;62.30;;;;;;4974969;28;20472;-83
2022/10/05 10:49:25;;;;;;;7.73;1.63;;;23.30;57.70;;;;;;4999654;28;20477;-86
2022/10/05 10:52:32;;;;;;;5.90;1.80;;;23.80;56.80;;;;;;4991713;28;20581;-83
2022/10/05 10:55:26;;;;;;;5.07;1.70;;;24.20;50.40;;;;;;4976382;28;20462;-82
2022/10/05 10:58:27;;;;;;;4.23;1.40;;;24.30;49.80;;;;;;4985407;28;20597;-83
2022/10/05 11:00:58;;;;;;;4.40;1.70;;;24.30;47.40;;;;;;4997538;28;20511;-83
2022/10/05 11:04:18;;;;;;;4.67;1.40;;;24.10;45.10;;;;;;4998565;28;20478;-83
2022/10/05 11:07:16;;;;;;;5.13;1.70;;;23.40;44.70;;;;;;4998761;28;20866;-86
2022/10/05 11:10:10;;;;;;;5.93;2.10;;;23.40;47.70;;;;;;5001481;28;20454;-83
2022/10/05 11:13:03;;;;;;;4.87;1.77;;;23.00;47.20;;;;;;5001520;28;20457;-83
2022/10/05 11:16:02;;;;;;;6.23;1.90;;;23.00;47.20;;;;;;5001348;28;20454;-83
2022/10/05 11:18:43;;;;;;;5.70;1.60;;;23.30;45.40;;;;;;5001947;28;20484;-83
2022/10/05 11:21:27;;;;;;;6.13;1.50;;;23.80;45.60;;;;;;5001258;28;20476;-85
2022/10/05 11:24:27;;;;;;;5.97;1.57;;;23.50;42.30;;;;;;5010788;28;20874;-85
2022/10/05 11:27:12;;;;;;;6.60;2.27;;;23.50;43.40;;;;;;5015200;28;20480;-86
2022/10/05 11:30:16;;;;;;;5.10;1.70;;;23.70;45.50;;;;;;5013648;28;20457;-86
2022/10/05 11:33:18;;;;;;;10.00;2.23;;;23.70;42.40;;;;;;5004515;28;20465;-84
2022/10/05 11:35:58;;;;;;;6.97;1.90;;;23.50;43.50;;;;;;4990545;28;20449;-84
2022/10/05 11:38:49;;;;;;;5.87;2.13;;;24.20;43.30;;;;;;4999740;28;20478;-84
2022/10/05 11:41:31;;;;;;;4.50;1.67;;;24.30;37.10;;;;;;4999822;28;20469;-83
2022/10/05 11:44:26;;;;;;;4.73;1.87;;;24.20;39.20;;;;;;4996808;28;20450;-83
2022/10/05 11:47:02;;;;;;;5.80;1.93;;;25.10;38.80;;;;;;5032935;23;20498;-85
2022/10/05 11:53:19;;;;;;;6.53;2.43;;;24.30;39.30;;;;;;4877254;29;20452;-87
2022/10/05 11:56:03;;;;;;;5.53;1.87;;;24.40;38.80;;;;;;5035462;28;20467;-84
2022/10/05 11:58:35;;;;;;;4.70;1.80;;;24.60;38.10;;;;;;5015781;28;20449;-84
2022/10/05 12:01:25;;;;;;;4.27;1.73;;;24.90;35.50;;;;;;5016811;28;20952;-84
2022/10/05 12:04:13;;;;;;;5.53;2.10;;;24.50;32.40;;;;;;5002264;28;20556;-84
2022/10/05 12:06:55;;;;;;;5.83;1.90;;;24.80;32.20;;;;;;5015219;28;20484;-84
2022/10/05 12:09:37;;;;;;;4.80;1.83;;;24.80;31.70;;;;;;5016425;28;20479;-85
2022/10/05 12:12:48;;;;;;;;;;;;;;;;;;;;;
2022/10/05 12:15:23;;;;;;;5.47;1.67;;;24.90;30.00;;;;;;4999556;28;20480;-85
2022/10/05 12:17:57;;;;;;;6.30;2.13;;;25.20;32.30;;;;;;5013045;28;20981;-82
2022/10/05 12:20:32;;;;;;;7.23;1.90;;;24.70;29.70;;;;;;5014968;28;20448;-85
2022/10/05 12:23:06;;;;;;;4.73;1.80;;;24.90;30.60;;;;;;5017321;28;20449;-84
2022/10/05 12:25:36;;;;;;;4.83;1.63;;;25.00;32.00;;;;;;5016509;28;20452;-84
2022/10/05 12:28:42;;;;;;;6.10;2.03;;;25.10;29.60;;;;;;5018870;28;20488;-92
2022/10/05 12:31:27;;;;;;;5.10;1.53;;;25.10;28.30;;;;;;5021117;28;20453;-89
2022/10/05 12:34:02;;;;;;;5.53;1.77;;;25.00;27.10;;;;;;5018604;28;20543;-84
2022/10/05 12:36:35;;;;;;;4.50;1.50;;;25.10;28.10;;;;;;5018704;28;20494;-84
2022/10/05 12:39:08;;;;;;;4.67;1.63;;;24.80;26.50;;;;;;5019425;28;20453;-84
2022/10/05 12:41:45;;;;;;;5.20;1.73;;;25.50;29.90;;;;;;5020282;28;20930;-84
2022/10/05 12:44:18;;;;;;;5.57;1.27;;;25.60;27.50;;;;;;5018477;28;20452;-86
2022/10/05 12:46:56;;;;;;;6.80;1.60;;;25.70;28.50;;;;;;5018405;28;20477;-83
2022/10/05 12:49:42;;;;;;;6.63;1.60;;;25.60;24.40;;;;;;5020514;28;20855;-83
2022/10/05 12:52:24;;;;;;;9.60;2.07;;;25.60;28.20;;;;;;5019839;28;20812;-82
2022/10/05 12:55:02;;;;;;;5.67;1.80;;;25.40;26.20;;;;;;5020247;28;20453;-83
2022/10/05 12:57:38;;;;;;;8.10;1.83;;;25.30;26.40;;;;;;5015785;28;20476;-82
2022/10/05 13:00:08;;;;;;;5.73;1.70;;;25.20;26.90;;;;;;5023086;28;20468;-82
2022/10/05 13:02:41;;;;;;;5.30;1.53;;;24.90;28.00;;;;;;5023880;28;20456;-82
2022/10/05 13:05:22;;;;;;;11.13;1.70;;;25.10;27.00;;;;;;5018189;28;20472;-82
2022/10/05 13:08:02;;;;;;;5.33;1.50;;;25.30;27.30;;;;;;5021995;28;20898;-84
2022/10/05 13:10:34;;;;;;;5.97;1.70;;;25.30;25.30;;;;;;5022294;28;20455;-83
2022/10/05 13:13:15;;;;;;;5.27;1.53;;;25.10;26.70;;;;;;5024791;28;20937;-82
2022/10/05 13:15:50;;;;;;;5.73;1.70;;;24.80;26.80;;;;;;5023720;28;20468;-82
2022/10/05 13:18:28;;;;;;;4.77;1.33;;;24.20;27.70;;;;;;5025289;28;20464;-81
2022/10/05 13:21:04;;;;;;;8.00;1.93;;;23.80;32.80;;;;;;5024011;28;20457;-82
2022/10/05 13:23:46;;;;;;;5.10;2.17;;;23.20;35.40;;;;;;5023058;28;20451;-82
2022/10/05 13:26:18;;;;;;;5.37;1.40;;;22.90;35.50;;;;;;5021990;28;20463;-82
2022/10/05 13:28:51;;;;;;;5.13;1.60;;;22.70;37.80;;;;;;5023297;28;20475;-82
2022/10/05 13:31:21;;;;;;;9.87;1.77;;;22.50;36.80;;;;;;5024676;28;20459;-82
2022/10/05 13:34:05;;;;;;;5.47;1.60;;;22.50;40.70;;;;;;5023865;28;20458;-82
2022/10/05 13:36:42;;;;;;;4.27;1.40;;;22.60;42.10;;;;;;5018371;28;20472;-86
2022/10/05 13:39:30;;;;;;;4.50;1.50;;;22.50;43.60;;;;;;5012400;28;20451;-86
2022/10/05 13:42:07;;;;;;;4.83;1.47;;;22.40;41.80;;;;;;5013735;28;20452;-86
2022/10/05 13:44:42;;;;;;;6.37;1.80;;;22.30;46.50;;;;;;5016395;28;20456;-86
2022/10/05 13:47:19;;;;;;;7.20;1.40;;;22.20;46.40;;;;;;5017228;28;20570;-86
2022/10/05 13:49:54;;;;;;;4.37;1.63;;;22.20;48.80;;;;;;5016388;28;20481;-85